Galena, Indiana
Current Conditions -  °F | °C
As of 11:56 PM on Monday 20 Oct 2014 (Local Time) from KSDF Reporting Station
Few Clouds Few Clouds  
Wind Chill: 58°   Ceiling: Unl
Heat Index: 58°   Visibility: 10mi
Dew Point: 52°   Wind: 9mph
Humidity: 81%   Direction: 240°WSW
Pressure: 29.94"   Gusts: NA
Location:  38.3602°N, 85.8979°W
Report Text: KSDF 210356Z 24008KT 10SM FEW075 14/11 A2994 RMK AO2 SLP138 T01440111
Loading
Personal Weather Stations






























Interactive Weather Map
Tropical Storm Tracking
New forecast layout! Learn more

10-Day Weather Forecast

Advertisements
Track Severe Weather on mobile